Time;durP1;ratioP1;P1;durP2;ratioP2;P2;SDS_P1;SDS_P2;PMS_P1;PMS_P2;Temp;Humidity;BMP_temperature;BMP_pressure;BME280_temperature;BME280_humidity;BME280_pressure;Samples;Min_cycle;Max_cycle;Signal;HPM_P1;HPM_P2
2020/12/28 00:02:12;;;;;;;3.42;3.13;;;7.10;87.70;;;;;;5095247;28;20020;-74
2020/12/28 00:04:38;;;;;;;3.85;3.53;;;7.10;87.70;;;;;;5094105;28;20028;-74
2020/12/28 00:07:06;;;;;;;4.43;4.00;;;7.10;87.70;;;;;;5095180;28;20104;-74
2020/12/28 00:09:33;;;;;;;3.95;3.60;;;7.10;87.70;;;;;;5095289;28;20020;-73
2020/12/28 00:11:59;;;;;;;4.35;3.95;;;7.10;87.70;;;;;;5093659;28;20024;-73
2020/12/28 00:14:26;;;;;;;3.83;3.13;;;7.00;87.60;;;;;;5096127;28;20100;-74
2020/12/28 00:16:53;;;;;;;4.22;3.70;;;7.10;87.70;;;;;;5095873;28;20028;-73
2020/12/28 00:19:19;;;;;;;3.53;3.20;;;7.10;87.70;;;;;;5094906;28;20202;-74
2020/12/28 00:21:45;;;;;;;3.53;3.10;;;7.10;87.60;;;;;;5095112;28;20096;-73
2020/12/28 00:24:11;;;;;;;4.28;3.50;;;7.00;87.60;;;;;;5095389;28;20056;-74
2020/12/28 00:26:38;;;;;;;3.67;3.38;;;7.10;87.70;;;;;;5093344;28;20020;-73
2020/12/28 00:29:05;;;;;;;6.13;3.92;;;7.00;87.60;;;;;;5094591;28;20081;-73
2020/12/28 00:31:31;;;;;;;4.35;3.95;;;7.00;87.60;;;;;;5093358;28;20084;-73
2020/12/28 00:33:57;;;;;;;5.03;4.32;;;7.00;87.50;;;;;;5094525;28;20480;-73
2020/12/28 00:36:23;;;;;;;7.30;5.43;;;7.00;87.50;;;;;;5094514;28;20039;-74
2020/12/28 00:38:49;;;;;;;5.70;4.63;;;7.00;87.50;;;;;;5093013;28;20036;-73
2020/12/28 00:41:14;;;;;;;5.07;4.43;;;6.90;87.50;;;;;;5094416;28;20466;-73
2020/12/28 00:43:41;;;;;;;5.32;4.82;;;7.00;87.60;;;;;;5092760;28;20141;-73
2020/12/28 00:46:08;;;;;;;4.93;4.50;;;7.00;87.60;;;;;;5092830;28;20042;-73
2020/12/28 00:48:34;;;;;;;4.65;4.18;;;7.00;87.60;;;;;;5092944;28;20048;-73
2020/12/28 00:51:00;;;;;;;5.13;4.40;;;7.00;87.50;;;;;;5092778;28;20566;-73
2020/12/28 00:53:26;;;;;;;6.43;4.78;;;7.00;87.50;;;;;;5094548;28;20055;-73
2020/12/28 00:55:52;;;;;;;4.55;3.92;;;7.00;87.50;;;;;;5091964;28;20035;-73
2020/12/28 00:58:17;;;;;;;4.65;4.13;;;7.00;87.50;;;;;;5094238;28;20426;-73
2020/12/28 01:00:43;;;;;;;4.47;4.07;;;7.00;87.50;;;;;;5092687;28;20024;-73
2020/12/28 01:03:09;;;;;;;6.25;4.90;;;7.00;87.50;;;;;;5094185;28;20103;-73
2020/12/28 01:05:34;;;;;;;5.20;4.70;;;7.00;87.50;;;;;;5093938;28;20028;-73
2020/12/28 01:08:00;;;;;;;4.22;3.85;;;7.00;87.50;;;;;;5094109;28;20032;-73
2020/12/28 01:10:25;;;;;;;4.68;4.25;;;7.00;87.50;;;;;;5092405;28;20028;-73
2020/12/28 01:12:51;;;;;;;5.07;4.57;;;7.00;87.50;;;;;;5092402;28;20074;-73
2020/12/28 01:15:17;;;;;;;5.20;4.70;;;7.00;87.50;;;;;;5093659;28;20051;-74
2020/12/28 01:17:42;;;;;;;5.00;4.50;;;7.00;87.40;;;;;;5092194;28;20032;-74
2020/12/28 01:20:08;;;;;;;4.55;4.15;;;7.00;87.50;;;;;;5092307;28;20135;-74
2020/12/28 01:22:33;;;;;;;4.88;4.40;;;7.00;87.40;;;;;;5092309;28;20018;-73
2020/12/28 01:24:59;;;;;;;5.38;4.63;;;7.00;87.40;;;;;;5092200;28;20126;-73
2020/12/28 01:27:25;;;;;;;5.32;4.28;;;7.00;87.40;;;;;;5092097;28;20364;-73
2020/12/28 01:29:50;;;;;;;4.45;3.92;;;7.00;87.40;;;;;;5091967;28;20028;-74
2020/12/28 01:32:16;;;;;;;4.32;3.90;;;7.00;87.40;;;;;;5092102;28;20491;-73
2020/12/28 01:34:41;;;;;;;5.65;4.68;;;7.00;87.40;;;;;;5093307;28;20410;-73
2020/12/28 01:37:07;;;;;;;4.70;4.20;;;7.00;87.30;;;;;;5091964;28;20059;-73
2020/12/28 01:39:33;;;;;;;6.22;4.20;;;7.00;87.30;;;;;;5093714;28;20034;-73
2020/12/28 01:41:58;;;;;;;4.65;4.10;;;7.00;87.30;;;;;;5093299;28;20071;-73
2020/12/28 01:44:24;;;;;;;5.97;4.28;;;7.00;87.30;;;;;;5093748;28;20028;-73
2020/12/28 01:46:50;;;;;;;5.32;3.63;;;7.00;87.30;;;;;;5091848;28;20107;-74
2020/12/28 01:49:15;;;;;;;4.43;3.75;;;7.00;87.30;;;;;;5091810;28;20081;-74
2020/12/28 01:51:43;;;;;;;4.22;3.83;;;7.00;87.30;;;;;;5091565;28;20024;-73
2020/12/28 01:54:10;;;;;;;3.75;3.35;;;7.00;87.20;;;;;;5091662;28;20031;-73
2020/12/28 01:56:38;;;;;;;4.32;3.45;;;7.00;87.20;;;;;;5092959;28;20028;-73
2020/12/28 01:59:05;;;;;;;3.88;3.58;;;7.00;87.30;;;;;;5091276;28;20356;-73
2020/12/28 02:01:41;;;;;;;3.90;3.50;;;7.00;87.30;;;;;;5091662;28;20035;-73
2020/12/28 02:04:08;;;;;;;4.43;3.80;;;7.00;87.30;;;;;;5091548;28;20055;-73
2020/12/28 02:06:34;;;;;;;3.95;3.50;;;7.00;87.30;;;;;;5092801;28;20024;-73
2020/12/28 02:09:00;;;;;;;3.80;3.40;;;7.00;87.30;;;;;;5092866;28;20173;-73
2020/12/28 02:11:30;;;;;;;3.13;2.83;;;7.00;87.20;;;;;;5091531;28;20032;-73
2020/12/28 02:13:55;;;;;;;4.38;3.75;;;7.00;87.20;;;;;;5092817;28;20448;-74
2020/12/28 02:16:21;;;;;;;3.58;3.28;;;7.00;87.20;;;;;;5091561;28;20067;-73
2020/12/28 02:18:47;;;;;;;3.95;3.00;;;7.00;87.20;;;;;;5091433;28;20023;-73
2020/12/28 02:21:13;;;;;;;4.05;3.50;;;6.90;87.10;;;;;;5092773;28;20024;-73
2020/12/28 02:23:42;;;;;;;3.45;3.15;;;6.90;87.10;;;;;;5092719;28;20043;-73
2020/12/28 02:26:08;;;;;;;3.67;2.90;;;6.90;87.10;;;;;;5091394;28;20020;-73
2020/12/28 02:28:33;;;;;;;3.00;2.80;;;6.90;87.20;;;;;;5091337;28;20119;-73
2020/12/28 02:30:59;;;;;;;3.33;2.92;;;6.90;87.10;;;;;;5091354;28;20082;-73
2020/12/28 02:33:24;;;;;;;3.20;2.92;;;6.90;87.10;;;;;;5091650;28;20363;-73
2020/12/28 02:35:50;;;;;;;5.45;3.20;;;6.90;87.10;;;;;;5091084;28;20031;-73
2020/12/28 02:38:16;;;;;;;3.03;2.83;;;6.90;87.10;;;;;;5092811;28;20059;-73
2020/12/28 02:40:41;;;;;;;3.22;2.72;;;6.90;87.10;;;;;;5092500;28;20108;-73
2020/12/28 02:43:07;;;;;;;3.85;2.80;;;6.90;87.10;;;;;;5091039;28;20086;-73
2020/12/28 02:45:32;;;;;;;2.85;2.58;;;6.90;87.00;;;;;;5092729;28;20088;-73
2020/12/28 02:47:58;;;;;;;3.08;2.78;;;6.90;87.00;;;;;;5091041;28;20079;-74
2020/12/28 02:50:24;;;;;;;3.03;2.72;;;6.80;87.00;;;;;;5090923;28;20047;-74
2020/12/28 02:52:49;;;;;;;2.88;2.63;;;6.90;87.00;;;;;;5092337;28;20419;-73
2020/12/28 02:55:15;;;;;;;2.78;2.58;;;6.80;86.90;;;;;;5090977;28;20115;-73
2020/12/28 02:57:41;;;;;;;2.67;2.47;;;6.80;86.90;;;;;;5092336;28;20093;-73
2020/12/28 03:00:06;;;;;;;3.00;2.70;;;6.80;87.00;;;;;;5090827;28;20048;-73
2020/12/28 03:02:32;;;;;;;3.00;2.63;;;6.90;87.60;;;;;;5092353;28;20035;-73
2020/12/28 03:04:58;;;;;;;3.50;3.05;;;6.80;87.00;;;;;;5091025;28;20020;-73
2020/12/28 03:07:24;;;;;;;3.88;3.10;;;6.90;87.00;;;;;;5092307;28;20028;-73
2020/12/28 03:09:50;;;;;;;3.53;2.92;;;6.80;86.90;;;;;;5090750;28;20046;-73
2020/12/28 03:12:15;;;;;;;3.30;3.00;;;6.80;86.80;;;;;;5090951;28;20070;-73
2020/12/28 03:14:41;;;;;;;5.07;3.65;;;6.80;86.90;;;;;;5092184;28;20024;-74
2020/12/28 03:17:06;;;;;;;4.75;3.75;;;6.80;86.70;;;;;;5092692;28;20433;-73
2020/12/28 03:19:32;;;;;;;5.72;3.80;;;6.80;86.60;;;;;;5094069;28;20024;-73
2020/12/28 03:21:58;;;;;;;4.68;3.80;;;6.70;86.50;;;;;;5094977;28;20104;-73
2020/12/28 03:24:24;;;;;;;4.20;3.80;;;6.80;86.50;;;;;;5094875;28;20020;-73
2020/12/28 03:26:49;;;;;;;3.88;3.47;;;6.70;86.40;;;;;;5094543;28;20035;-73
2020/12/28 03:29:15;;;;;;;5.32;3.53;;;6.80;86.50;;;;;;5094526;28;20028;-73
2020/12/28 03:31:42;;;;;;;5.10;3.83;;;6.80;86.40;;;;;;5094320;28;20036;-73
2020/12/28 03:34:08;;;;;;;4.10;3.70;;;6.80;86.90;;;;;;5094710;28;20063;-73
2020/12/28 03:36:37;;;;;;;5.25;4.45;;;6.80;86.30;;;;;;5095615;28;20053;-73
2020/12/28 03:39:05;;;;;;;6.38;4.15;;;6.80;86.10;;;;;;5094108;28;20028;-73
2020/12/28 03:41:34;;;;;;;6.40;4.55;;;6.70;86.00;;;;;;5094208;28;20472;-74
2020/12/28 03:43:59;;;;;;;5.35;4.05;;;6.70;86.00;;;;;;5094104;28;20476;-74
2020/12/28 03:46:25;;;;;;;6.28;4.18;;;6.70;86.70;;;;;;5095359;28;20050;-73
2020/12/28 03:48:51;;;;;;;7.53;3.92;;;6.70;86.00;;;;;;5095653;28;20032;-74
2020/12/28 03:51:16;;;;;;;4.80;3.70;;;6.60;86.00;;;;;;5094566;28;20049;-73
2020/12/28 03:53:42;;;;;;;5.45;3.95;;;6.60;86.00;;;;;;5095599;28;20024;-74
2020/12/28 03:56:07;;;;;;;5.90;4.10;;;6.60;86.00;;;;;;5094040;28;20124;-74
2020/12/28 03:58:33;;;;;;;5.85;4.10;;;6.60;86.00;;;;;;5093692;28;20054;-73
2020/12/28 04:00:59;;;;;;;5.47;3.97;;;6.60;86.00;;;;;;5094369;28;20036;-73
2020/12/28 04:03:24;;;;;;;7.20;4.20;;;6.60;86.00;;;;;;5093714;28;20025;-73
2020/12/28 04:05:50;;;;;;;6.18;4.38;;;6.60;85.90;;;;;;5093737;28;20017;-73
2020/12/28 04:08:17;;;;;;;6.25;3.80;;;6.60;85.90;;;;;;5095345;28;20372;-73
2020/12/28 04:10:43;;;;;;;5.80;4.00;;;6.60;85.80;;;;;;5093691;28;20035;-73
2020/12/28 04:13:08;;;;;;;6.13;4.05;;;6.60;85.90;;;;;;5093649;28;20028;-73
2020/12/28 04:15:34;;;;;;;4.97;3.60;;;6.60;85.70;;;;;;5094972;28;20028;-73
2020/12/28 04:18:00;;;;;;;4.90;4.10;;;6.60;85.80;;;;;;5094753;28;20058;-74
2020/12/28 04:20:25;;;;;;;6.28;4.10;;;6.60;85.70;;;;;;5094025;28;20114;-73
2020/12/28 04:22:51;;;;;;;4.68;4.00;;;6.60;85.60;;;;;;5093530;28;20035;-73
2020/12/28 04:25:17;;;;;;;4.93;3.92;;;6.60;85.60;;;;;;5094703;28;20020;-73
2020/12/28 04:27:43;;;;;;;5.70;4.20;;;6.60;85.70;;;;;;5094812;28;20502;-74
2020/12/28 04:30:09;;;;;;;4.70;3.55;;;6.60;85.60;;;;;;5092948;28;20020;-73
2020/12/28 04:32:35;;;;;;;5.88;3.78;;;6.50;85.50;;;;;;5092564;28;20059;-73
2020/12/28 04:35:01;;;;;;;5.85;4.38;;;6.50;85.60;;;;;;5093259;28;20176;-73
2020/12/28 04:37:27;;;;;;;5.25;4.15;;;6.60;85.60;;;;;;5094804;28;20124;-73
2020/12/28 04:39:52;;;;;;;4.93;4.13;;;6.60;85.50;;;;;;5094244;28;20093;-74
2020/12/28 04:42:27;;;;;;;5.93;4.57;;;6.50;85.50;;;;;;5092991;28;20142;-73
2020/12/28 04:44:53;;;;;;;5.88;4.03;;;6.50;85.40;;;;;;5092926;28;20388;-73
2020/12/28 04:47:19;;;;;;;6.28;3.95;;;6.60;85.60;;;;;;5094315;28;20403;-73
2020/12/28 04:49:46;;;;;;;5.38;3.83;;;6.60;85.60;;;;;;5094094;28;20032;-73
2020/12/28 04:52:13;;;;;;;4.40;4.00;;;6.60;85.60;;;;;;5094145;28;20046;-73
2020/12/28 04:54:40;;;;;;;4.70;3.78;;;6.60;85.50;;;;;;5092807;28;20024;-73
2020/12/28 04:57:07;;;;;;;5.70;3.88;;;6.60;85.60;;;;;;5092722;28;20032;-73
2020/12/28 04:59:33;;;;;;;3.83;3.22;;;6.60;85.60;;;;;;5089828;28;20135;-73
2020/12/28 05:01:58;;;;;;;4.63;3.45;;;6.60;85.50;;;;;;5093997;28;20407;-74
2020/12/28 05:04:24;;;;;;;4.18;3.30;;;6.60;85.50;;;;;;5092864;28;20016;-74
2020/12/28 05:06:57;;;;;;;4.20;3.20;;;6.50;85.50;;;;;;5092784;28;20402;-73
2020/12/28 05:09:22;;;;;;;4.05;3.28;;;6.50;85.60;;;;;;5092763;28;20024;-73
2020/12/28 05:11:52;;;;;;;5.88;3.45;;;6.60;85.70;;;;;;5092576;28;20374;-75
2020/12/28 05:14:18;;;;;;;5.05;3.35;;;6.60;85.60;;;;;;5092532;28;20122;-73
2020/12/28 05:16:44;;;;;;;4.28;3.10;;;6.60;85.60;;;;;;5093782;28;20523;-73
2020/12/28 05:19:10;;;;;;;5.85;3.33;;;6.60;85.60;;;;;;5093725;28;20060;-74
2020/12/28 05:21:36;;;;;;;4.53;3.08;;;6.60;85.60;;;;;;5093854;28;20031;-73
2020/12/28 05:24:14;;;;;;;3.20;2.88;;;6.60;85.60;;;;;;5092331;28;20024;-73
2020/12/28 05:26:41;;;;;;;6.15;2.88;;;6.60;85.60;;;;;;5092353;28;20016;-73
2020/12/28 05:29:11;;;;;;;4.43;2.85;;;6.50;85.60;;;;;;5092275;28;20501;-72
2020/12/28 05:31:39;;;;;;;7.00;3.15;;;6.50;85.50;;;;;;5092437;28;20016;-73
2020/12/28 05:34:06;;;;;;;4.80;3.60;;;6.50;85.50;;;;;;5092155;28;20027;-74
2020/12/28 05:36:32;;;;;;;4.38;2.88;;;6.50;85.50;;;;;;5093493;28;20036;-73
2020/12/28 05:39:00;;;;;;;4.15;2.65;;;6.60;85.50;;;;;;5093770;28;20024;-74
2020/12/28 05:41:26;;;;;;;3.97;2.92;;;6.50;85.40;;;;;;5092678;28;20022;-73
2020/12/28 05:43:52;;;;;;;3.28;2.53;;;6.50;85.40;;;;;;5092992;28;20028;-73
2020/12/28 05:46:24;;;;;;;5.78;3.05;;;6.50;85.50;;;;;;5091884;28;20078;-74
2020/12/28 05:48:55;;;;;;;4.78;3.08;;;6.50;85.50;;;;;;5093337;28;20074;-73
2020/12/28 05:51:21;;;;;;;4.38;2.90;;;6.50;85.40;;;;;;5091912;28;20024;-74
2020/12/28 05:53:48;;;;;;;4.60;3.35;;;6.50;85.40;;;;;;5092200;28;20085;-73
2020/12/28 05:56:17;;;;;;;5.57;3.60;;;6.50;85.40;;;;;;5091788;28;20089;-73
2020/12/28 05:58:43;;;;;;;4.10;2.92;;;6.50;85.40;;;;;;5092727;28;20445;-73
2020/12/28 06:01:10;;;;;;;5.20;3.05;;;6.50;85.40;;;;;;5093198;28;20036;-73
2020/12/28 06:03:40;;;;;;;3.33;2.92;;;6.50;85.40;;;;;;5091684;28;20049;-72
2020/12/28 06:06:07;;;;;;;5.60;2.70;;;6.50;85.40;;;;;;5091716;28;20512;-73
2020/12/28 06:08:33;;;;;;;5.45;2.70;;;6.40;85.30;;;;;;5091699;28;20078;-73
2020/12/28 06:11:03;;;;;;;5.47;3.22;;;6.40;85.30;;;;;;5091820;28;20060;-73
2020/12/28 06:13:29;;;;;;;5.03;2.72;;;6.40;85.30;;;;;;5091779;28;20031;-73
2020/12/28 06:16:21;;;;;;;4.32;3.05;;;6.30;85.30;;;;;;5091423;28;20173;-73
2020/12/28 06:18:57;;;;;;;4.10;3.25;;;6.30;85.40;;;;;;5092780;28;20031;-73
2020/12/28 06:21:34;;;;;;;4.97;3.28;;;6.30;85.40;;;;;;5091384;28;20036;-73
2020/12/28 06:23:59;;;;;;;4.47;3.10;;;6.30;85.50;;;;;;5091486;28;20107;-73
2020/12/28 06:26:25;;;;;;;4.57;3.20;;;6.20;85.50;;;;;;5092735;28;20078;-73
2020/12/28 06:28:51;;;;;;;4.60;3.80;;;6.20;85.60;;;;;;5091205;28;20098;-73
2020/12/28 06:31:16;;;;;;;5.07;3.63;;;6.20;85.60;;;;;;5092718;28;20081;-73
2020/12/28 06:33:49;;;;;;;4.57;4.07;;;6.20;85.60;;;;;;5091256;28;20043;-73
2020/12/28 06:36:16;;;;;;;5.30;3.95;;;6.20;85.60;;;;;;5092701;28;20071;-73
2020/12/28 06:38:53;;;;;;;6.65;4.90;;;6.20;85.70;;;;;;5091148;28;20099;-73
2020/12/28 06:41:27;;;;;;;6.53;4.40;;;6.10;85.60;;;;;;5091191;28;20032;-74
2020/12/28 06:44:01;;;;;;;6.15;4.70;;;6.10;85.70;;;;;;5092385;28;20170;-73
2020/12/28 06:46:28;;;;;;;6.55;4.80;;;6.10;85.80;;;;;;5092593;28;20384;-73
2020/12/28 06:48:54;;;;;;;5.78;4.50;;;6.10;85.90;;;;;;5092621;28;20083;-74
2020/12/28 06:51:23;;;;;;;6.00;5.10;;;6.10;85.90;;;;;;5091456;28;20039;-73
2020/12/28 06:53:56;;;;;;;7.03;5.43;;;6.10;85.90;;;;;;5091378;28;20056;-74
2020/12/28 06:56:25;;;;;;;6.53;5.68;;;6.00;85.90;;;;;;5095368;28;20050;-73
2020/12/28 06:59:01;;;;;;;6.65;5.50;;;6.00;86.00;;;;;;5096336;28;20521;-73
2020/12/28 07:01:27;;;;;;;7.25;5.00;;;6.00;86.00;;;;;;5096619;28;20074;-73
2020/12/28 07:03:54;;;;;;;7.93;6.00;;;6.00;86.00;;;;;;5095108;28;20377;-73
2020/12/28 07:06:20;;;;;;;7.18;5.65;;;6.10;86.00;;;;;;5095188;28;20024;-73
2020/12/28 07:08:46;;;;;;;6.28;4.82;;;6.10;86.00;;;;;;5095099;28;20024;-74
2020/12/28 07:11:19;;;;;;;6.68;5.10;;;6.10;85.90;;;;;;5096439;28;20028;-73
2020/12/28 07:13:48;;;;;;;7.35;5.18;;;6.00;85.90;;;;;;5094914;28;20031;-73
2020/12/28 07:16:13;;;;;;;7.07;5.40;;;6.00;86.00;;;;;;5095028;28;20024;-74
2020/12/28 07:18:39;;;;;;;7.25;5.25;;;6.00;86.00;;;;;;5094703;28;20036;-73
2020/12/28 07:21:06;;;;;;;5.70;4.78;;;6.00;86.10;;;;;;5094959;28;20053;-74
2020/12/28 07:23:33;;;;;;;6.25;4.85;;;6.00;86.10;;;;;;5096188;28;20024;-73
2020/12/28 07:26:10;;;;;;;7.10;4.63;;;6.00;86.10;;;;;;5096109;28;20371;-74
2020/12/28 07:28:39;;;;;;;5.90;4.72;;;6.00;86.10;;;;;;5096269;28;20173;-73
2020/12/28 07:31:06;;;;;;;6.07;4.47;;;6.10;86.00;;;;;;5094499;28;20028;-73
2020/12/28 07:33:33;;;;;;;6.15;4.30;;;6.10;85.90;;;;;;5094589;28;20063;-73
2020/12/28 07:36:07;;;;;;;5.72;4.80;;;6.10;85.90;;;;;;5094593;28;20051;-73
2020/12/28 07:38:33;;;;;;;7.15;4.90;;;6.20;85.80;;;;;;5094448;28;20032;-73
2020/12/28 07:40:59;;;;;;;7.00;4.60;;;6.20;85.80;;;;;;5096186;28;20028;-73
2020/12/28 07:43:26;;;;;;;8.25;5.10;;;6.20;85.70;;;;;;5094372;28;20016;-73
2020/12/28 07:45:52;;;;;;;7.63;5.13;;;6.20;85.70;;;;;;5095763;28;20044;-73
2020/12/28 07:48:20;;;;;;;6.68;5.60;;;6.20;85.60;;;;;;5094437;28;20446;-73
2020/12/28 07:50:53;;;;;;;6.40;5.05;;;6.20;85.70;;;;;;5094141;28;20024;-73
2020/12/28 07:53:24;;;;;;;5.35;4.68;;;6.20;85.60;;;;;;5094214;28;20090;-73
2020/12/28 07:56:01;;;;;;;7.47;4.88;;;6.20;85.60;;;;;;5093874;28;20036;-73
2020/12/28 07:58:38;;;;;;;7.97;4.28;;;6.20;85.60;;;;;;5093725;28;20065;-74
2020/12/28 08:01:13;;;;;;;6.88;4.68;;;6.20;85.60;;;;;;5093742;28;20036;-73
2020/12/28 08:03:47;;;;;;;6.63;4.20;;;6.20;85.60;;;;;;5095258;28;20440;-74
2020/12/28 08:06:15;;;;;;;6.63;4.20;;;6.10;85.60;;;;;;5094956;28;20020;-73
2020/12/28 08:08:41;;;;;;;4.78;3.53;;;6.10;85.60;;;;;;5095378;28;20024;-73
2020/12/28 08:11:06;;;;;;;6.22;3.30;;;6.10;85.60;;;;;;5093523;28;20070;-73
2020/12/28 08:13:35;;;;;;;5.07;3.60;;;6.10;85.60;;;;;;5093690;28;20028;-73
2020/12/28 08:16:14;;;;;;;5.18;3.58;;;6.10;85.60;;;;;;5095113;28;20839;-73
2020/12/28 08:18:53;;;;;;;4.00;3.00;;;6.10;85.60;;;;;;5093494;28;20119;-73
2020/12/28 08:21:21;;;;;;;3.58;2.83;;;6.10;85.50;;;;;;5093600;28;20028;-73
2020/12/28 08:23:53;;;;;;;4.00;3.20;;;6.00;85.50;;;;;;5093510;28;20431;-73
2020/12/28 08:26:27;;;;;;;6.95;3.65;;;6.00;85.60;;;;;;5093466;28;20043;-73
2020/12/28 08:28:55;;;;;;;5.25;3.03;;;6.00;85.60;;;;;;5093526;28;20044;-73
2020/12/28 08:31:34;;;;;;;3.90;3.13;;;6.00;85.60;;;;;;5094645;28;20073;-73
2020/12/28 08:34:04;;;;;;;3.78;3.35;;;6.00;85.60;;;;;;5093383;28;20209;-73
2020/12/28 08:36:31;;;;;;;3.67;2.90;;;6.00;85.60;;;;;;5093648;28;20373;-73
2020/12/28 08:38:57;;;;;;;4.07;3.33;;;6.00;85.60;;;;;;5093132;28;20083;-73
2020/12/28 08:41:23;;;;;;;5.43;4.20;;;6.00;85.60;;;;;;5093272;28;20020;-73
2020/12/28 08:43:49;;;;;;;4.63;3.40;;;6.00;85.60;;;;;;5094577;28;20380;-74
2020/12/28 08:46:23;;;;;;;5.05;4.07;;;6.00;85.60;;;;;;5093314;28;20024;-73
2020/12/28 08:48:49;;;;;;;5.05;3.63;;;6.10;85.60;;;;;;5093146;28;20028;-73
2020/12/28 08:51:16;;;;;;;3.55;3.05;;;6.10;85.60;;;;;;5093084;28;20388;-74
2020/12/28 08:53:49;;;;;;;6.70;4.60;;;6.20;85.60;;;;;;5094337;28;20062;-74
2020/12/28 08:56:16;;;;;;;5.13;3.72;;;6.20;85.40;;;;;;5093252;28;20441;-73
2020/12/28 08:58:42;;;;;;;5.78;3.45;;;6.20;85.40;;;;;;5092972;28;20107;-74
2020/12/28 09:01:08;;;;;;;5.00;3.05;;;6.20;85.40;;;;;;5093421;28;20083;-73
2020/12/28 09:03:37;;;;;;;3.85;3.13;;;6.20;85.30;;;;;;5092916;28;20070;-73
2020/12/28 09:06:07;;;;;;;3.05;2.75;;;6.30;85.30;;;;;;5092801;28;20479;-73
2020/12/28 09:08:33;;;;;;;3.22;2.70;;;6.30;85.20;;;;;;5094652;28;20077;-73
2020/12/28 09:10:59;;;;;;;4.55;3.00;;;6.40;85.00;;;;;;5093993;28;20023;-73
2020/12/28 09:13:25;;;;;;;3.60;2.83;;;6.40;85.00;;;;;;5094358;28;20062;-73
2020/12/28 09:15:51;;;;;;;3.17;2.75;;;6.40;84.90;;;;;;5094195;28;20112;-74
2020/12/28 09:18:16;;;;;;;2.97;2.58;;;6.30;84.90;;;;;;5092301;28;20032;-74
2020/12/28 09:20:42;;;;;;;4.28;2.80;;;6.30;85.10;;;;;;5094182;28;20039;-73
2020/12/28 09:25:52;;;;;;;3.05;2.50;;;6.20;85.20;;;;;;5094297;28;20035;-74
2020/12/28 09:28:17;;;;;;;3.60;2.70;;;6.20;85.20;;;;;;5092625;28;20123;-74
2020/12/28 09:30:43;;;;;;;4.15;2.67;;;6.20;85.20;;;;;;5093827;28;20028;-73
2020/12/28 09:33:08;;;;;;;5.82;3.10;;;6.20;85.30;;;;;;5092355;28;20086;-74
2020/12/28 09:35:34;;;;;;;6.18;3.00;;;6.20;85.30;;;;;;5092535;28;20028;-73
2020/12/28 09:38:00;;;;;;;3.53;2.70;;;6.20;85.10;;;;;;5092257;28;20114;-73
2020/12/28 09:40:25;;;;;;;4.10;2.83;;;6.30;85.10;;;;;;5093733;28;20030;-74
2020/12/28 09:42:51;;;;;;;4.55;3.20;;;6.30;85.20;;;;;;5092011;28;20016;-73
2020/12/28 09:48:00;;;;;;;3.30;2.97;;;6.40;85.00;;;;;;5093841;28;20047;-73
2020/12/28 09:50:26;;;;;;;4.03;3.40;;;6.40;84.90;;;;;;5093392;28;20029;-74
2020/12/28 09:52:52;;;;;;;3.00;2.47;;;6.50;84.90;;;;;;5091996;28;20498;-74
2020/12/28 09:55:17;;;;;;;4.18;2.72;;;6.60;84.80;;;;;;5093558;28;20027;-74
2020/12/28 09:57:43;;;;;;;3.05;2.45;;;6.70;84.70;;;;;;5092377;28;20024;-73
2020/12/28 10:00:09;;;;;;;2.58;1.98;;;6.70;84.60;;;;;;5093128;28;20063;-73
2020/12/28 10:02:35;;;;;;;2.17;1.50;;;6.70;84.40;;;;;;5093243;28;20024;-74
2020/12/28 10:05:01;;;;;;;3.72;1.45;;;6.80;84.40;;;;;;5091944;28;20070;-74
2020/12/28 10:07:26;;;;;;;2.13;1.58;;;6.70;84.20;;;;;;5092090;28;20017;-74
2020/12/28 10:09:52;;;;;;;1.60;1.50;;;6.70;84.30;;;;;;5093072;28;20475;-74
2020/12/28 10:12:18;;;;;;;2.70;1.65;;;6.60;84.20;;;;;;5091948;28;20029;-74
2020/12/28 10:14:43;;;;;;;6.13;2.42;;;6.70;84.30;;;;;;5091507;28;20055;-73
2020/12/28 10:17:09;;;;;;;3.88;2.20;;;6.60;84.10;;;;;;5093218;28;20501;-73
2020/12/28 10:19:35;;;;;;;2.90;2.03;;;6.60;84.00;;;;;;5093058;28;20042;-74
2020/12/28 10:22:01;;;;;;;2.75;2.35;;;6.60;84.10;;;;;;5091458;28;20024;-73
2020/12/28 10:24:26;;;;;;;2.97;2.30;;;6.60;84.10;;;;;;5091422;28;20479;-73
2020/12/28 10:26:52;;;;;;;2.92;2.10;;;6.60;84.20;;;;;;5091392;28;20020;-73
2020/12/28 10:29:18;;;;;;;2.65;2.28;;;6.60;84.10;;;;;;5091855;28;20028;-73
2020/12/28 10:31:43;;;;;;;3.80;2.70;;;6.60;84.10;;;;;;5092955;28;20028;-74
2020/12/28 10:34:09;;;;;;;2.13;1.92;;;6.60;84.10;;;;;;5091422;28;20514;-74
2020/12/28 10:36:35;;;;;;;3.28;2.00;;;6.70;84.50;;;;;;5093061;28;20384;-73
2020/12/28 10:39:01;;;;;;;3.75;2.83;;;6.70;84.70;;;;;;5092706;28;20065;-73
2020/12/28 10:41:28;;;;;;;3.10;2.50;;;6.70;84.60;;;;;;5092639;28;20028;-74
2020/12/28 10:43:54;;;;;;;3.65;2.10;;;6.70;84.30;;;;;;5092536;28;20028;-73
2020/12/28 10:46:20;;;;;;;3.42;2.08;;;6.70;84.40;;;;;;5091199;28;20472;-73
2020/12/28 10:48:46;;;;;;;2.38;2.05;;;6.70;84.40;;;;;;5091069;28;20077;-73
2020/12/28 10:51:12;;;;;;;4.53;1.77;;;6.80;84.40;;;;;;5091125;28;20456;-75
2020/12/28 10:53:38;;;;;;;4.55;2.30;;;6.80;84.60;;;;;;5091229;28;20036;-75
2020/12/28 10:56:07;;;;;;;2.38;1.88;;;6.70;85.10;;;;;;5092487;28;20030;-75
2020/12/28 10:58:36;;;;;;;2.35;1.88;;;6.70;84.90;;;;;;5091093;28;20601;-75
2020/12/28 11:01:05;;;;;;;2.75;1.60;;;6.70;84.90;;;;;;5091015;28;20483;-74
2020/12/28 11:03:31;;;;;;;3.17;1.60;;;6.60;85.30;;;;;;5091169;28;20030;-74
2020/12/28 11:05:57;;;;;;;2.42;1.60;;;6.60;85.40;;;;;;5092507;28;20107;-75
2020/12/28 11:08:22;;;;;;;2.30;1.70;;;6.60;85.40;;;;;;5091115;28;20400;-74
2020/12/28 11:10:48;;;;;;;2.55;1.63;;;6.60;85.40;;;;;;5091054;28;20581;-75
2020/12/28 11:13:14;;;;;;;3.78;2.15;;;6.50;85.10;;;;;;5092816;28;20332;-75
2020/12/28 11:15:39;;;;;;;3.05;1.75;;;6.50;85.20;;;;;;5092805;28;20555;-75
2020/12/28 11:18:05;;;;;;;3.10;1.88;;;6.40;85.50;;;;;;5091131;28;20028;-75
2020/12/28 11:20:31;;;;;;;1.33;1.23;;;6.40;85.60;;;;;;5090921;28;20480;-73
2020/12/28 11:22:56;;;;;;;3.70;1.90;;;6.40;85.40;;;;;;5092146;28;20050;-73
2020/12/28 11:25:22;;;;;;;3.30;1.45;;;6.40;85.40;;;;;;5090854;28;20028;-73
2020/12/28 11:27:47;;;;;;;3.45;1.60;;;6.40;85.20;;;;;;5092652;28;20127;-73
2020/12/28 11:30:13;;;;;;;4.32;1.50;;;6.40;85.10;;;;;;5092611;28;20020;-74
2020/12/28 11:32:39;;;;;;;2.20;1.60;;;6.40;85.20;;;;;;5091676;28;20080;-74
2020/12/28 11:35:05;;;;;;;2.78;1.58;;;6.50;85.10;;;;;;5092299;28;20028;-72
2020/12/28 11:37:31;;;;;;;4.72;1.70;;;6.40;84.90;;;;;;5090874;28;20031;-73
2020/12/28 11:39:58;;;;;;;3.55;1.70;;;6.50;84.80;;;;;;5091110;28;20028;-73
2020/12/28 11:42:24;;;;;;;5.53;2.00;;;6.50;84.80;;;;;;5096029;28;20020;-73
2020/12/28 11:44:51;;;;;;;3.10;1.60;;;6.40;84.60;;;;;;5095749;28;20501;-73
2020/12/28 11:47:17;;;;;;;1.90;1.50;;;6.40;84.40;;;;;;5095909;28;20073;-73
2020/12/28 11:49:43;;;;;;;2.28;1.50;;;6.40;84.40;;;;;;5094308;28;20069;-72
2020/12/28 11:52:08;;;;;;;2.85;1.67;;;6.40;84.40;;;;;;5094292;28;20083;-73
2020/12/28 11:54:34;;;;;;;2.97;1.65;;;6.40;84.40;;;;;;5095888;28;20480;-73
2020/12/28 11:56:59;;;;;;;4.38;1.92;;;6.40;84.30;;;;;;5095847;28;20453;-73
2020/12/28 11:59:25;;;;;;;2.17;1.50;;;6.40;84.30;;;;;;5094077;28;20040;-73
2020/12/28 12:01:51;;;;;;;2.15;1.73;;;6.50;84.30;;;;;;5093983;28;20035;-73
2020/12/28 12:04:16;;;;;;;2.92;1.70;;;6.40;84.20;;;;;;5094274;28;20063;-73
2020/12/28 12:06:42;;;;;;;3.15;1.70;;;6.50;84.20;;;;;;5095320;28;20024;-73
2020/12/28 12:09:12;;;;;;;3.17;1.70;;;6.50;84.20;;;;;;5095303;28;20491;-73
2020/12/28 12:11:42;;;;;;;4.43;1.95;;;6.50;84.00;;;;;;5093959;28;20032;-74
2020/12/28 12:14:08;;;;;;;3.30;1.80;;;6.60;83.90;;;;;;5095345;28;20480;-74
2020/12/28 12:16:34;;;;;;;2.97;2.28;;;6.60;83.70;;;;;;5094053;28;20081;-76
2020/12/28 12:19:00;;;;;;;5.40;1.98;;;6.60;83.70;;;;;;5095005;28;20039;-74
2020/12/28 12:21:25;;;;;;;4.93;1.80;;;6.60;83.60;;;;;;5095182;28;20475;-73
2020/12/28 12:23:51;;;;;;;3.10;1.70;;;6.50;83.50;;;;;;5093637;28;20020;-74
2020/12/28 12:26:21;;;;;;;2.10;1.63;;;6.60;83.50;;;;;;5094956;28;20165;-73
2020/12/28 12:28:47;;;;;;;1.80;1.33;;;6.60;83.50;;;;;;5093491;28;20160;-74
2020/12/28 12:31:14;;;;;;;3.35;1.60;;;6.60;83.30;;;;;;5094689;28;20060;-74
2020/12/28 12:33:41;;;;;;;2.45;1.70;;;6.70;83.30;;;;;;5093443;28;20031;-75
2020/12/28 12:36:10;;;;;;;2.25;1.38;;;6.70;83.10;;;;;;5094734;28;20028;-75
2020/12/28 12:38:36;;;;;;;2.50;1.60;;;6.70;83.10;;;;;;5094767;28;20036;-75
2020/12/28 12:41:02;;;;;;;4.10;1.60;;;6.70;83.10;;;;;;5093179;28;20024;-75
2020/12/28 12:43:28;;;;;;;4.15;1.80;;;6.70;83.00;;;;;;5093239;28;20047;-75
2020/12/28 12:45:54;;;;;;;3.47;1.65;;;6.70;82.80;;;;;;5094442;28;20137;-75
2020/12/28 12:48:19;;;;;;;2.17;1.52;;;6.70;83.40;;;;;;5093663;28;20549;-75
2020/12/28 12:50:45;;;;;;;2.83;1.60;;;6.80;82.80;;;;;;5093402;28;20024;-76
2020/12/28 12:53:10;;;;;;;2.50;1.63;;;6.80;83.40;;;;;;5092345;28;20105;-75
2020/12/28 12:55:40;;;;;;;2.03;1.45;;;6.80;82.70;;;;;;5094877;28;20119;-75
2020/12/28 12:58:06;;;;;;;4.18;1.50;;;6.90;82.80;;;;;;5094631;28;20048;-75
2020/12/28 13:00:32;;;;;;;2.90;1.45;;;6.90;82.70;;;;;;5093141;28;20079;-75
2020/12/28 13:02:58;;;;;;;2.80;1.42;;;7.00;82.60;;;;;;5092923;28;20066;-75